| Date | Time | Temp. (oF) | Dew Point (oF) | Rel. Hum. (%) | Press. (in.) | Wind Dir. | Wind Speed (mph) | Hourly Rainfall (in.) |
|
|---|---|---|---|---|---|---|---|---|---|
| 1 | 09/25 | 00:00 | 58 | 53 | 84 | 30.37 | ENE | 4 | 0.00 |
| 2 | 09/24 | 23:00 | 59 | 52 | 80 | 30.37 | ENE | 1 | 0.00 |
| 3 | 09/24 | 22:00 | 61 | 54 | 78 | 30.37 | ENE | 2 | 0.00 |
| 4 | 09/24 | 21:00 | 62 | 54 | 77 | 30.37 | NE | 2 | 0.00 |
| 5 | 09/24 | 20:00 | 64 | 54 | 72 | 30.35 | ENE | 2 | 0.00 |
| 6 | 09/24 | 19:00 | 67 | 54 | 65 | 30.34 | ESE | 3 | 0.00 |
| 7 | 09/24 | 18:00 | 70 | 55 | 61 | 30.34 | SE | 1 | 0.00 |
| 8 | 09/24 | 17:00 | 72 | 54 | 55 | 30.32 | ENE | 8 | 0.00 |
| 9 | 09/24 | 16:00 | 73 | 54 | 53 | 30.33 | ENE | 10 | 0.00 |
| 10 | 09/24 | 15:00 | 74 | 55 | 52 | 30.35 | ENE | 6 | 0.00 |
| 11 | 09/24 | 14:00 | 73 | 54 | 52 | 30.38 | ENE | 6 | 0.00 |
| 12 | 09/24 | 13:00 | 72 | 55 | 56 | 30.40 | ENE | 10 | 0.00 |
| 13 | 09/24 | 12:00 | 69 | 54 | 59 | 30.41 | NNE | 6 | 0.00 |
| 14 | 09/24 | 11:00 | 67 | 53 | 61 | 30.44 | ENE | 4 | 0.00 |
| 15 | 09/24 | 10:00 | 62 | 55 | 78 | 30.44 | ENE | 9 | 0.00 |
| 16 | 09/24 | 09:00 | 57 | 55 | 94 | 30.44 | NE | 0 | 0.00 |
| 17 | 09/24 | 08:00 | 49 | 49 | 100 | 30.44 | S | 0 | 0.00 |
| 18 | 09/24 | 07:00 | 47 | 46 | 100 | 30.41 | S | 0 | 0.00 |
| 19 | 09/24 | 06:00 | 48 | 48 | 100 | 30.41 | S | 0 | 0.00 |
| 20 | 09/24 | 05:00 | 48 | 47 | 99 | 30.40 | S | 0 | 0.00 |
| 21 | 09/24 | 04:00 | 49 | 48 | 98 | 30.40 | S | 0 | 0.00 |
| 22 | 09/24 | 03:00 | 50 | 49 | 97 | 30.41 | S | 0 | 0.00 |
| 23 | 09/24 | 02:00 | 52 | 51 | 97 | 30.42 | S | 0 | 0.00 |
| 24 | 09/24 | 01:00 | 52 | 50 | 96 | 30.41 | S | 0 | 0.00 |